createdAt,value
2018-08-24T00:00:22.066Z,5.60
2018-08-24T00:01:22.071Z,5.90
2018-08-24T00:02:22.079Z,5.90
2018-08-24T00:03:22.071Z,5.70
2018-08-24T00:04:22.076Z,6.80
2018-08-24T00:05:22.074Z,6.10
2018-08-24T00:06:22.078Z,6.10
2018-08-24T00:07:22.149Z,6.80
2018-08-24T00:08:22.084Z,5.80
2018-08-24T00:09:22.090Z,5.90
2018-08-24T00:10:22.093Z,6.40
2018-08-24T00:11:22.098Z,5.90
2018-08-24T00:12:22.100Z,6.00
2018-08-24T00:13:22.097Z,6.00
2018-08-24T00:14:22.100Z,5.80
2018-08-24T00:15:22.117Z,5.40
2018-08-24T00:16:22.112Z,6.30
2018-08-24T00:17:22.112Z,7.30
2018-08-24T00:18:22.113Z,6.20
2018-08-24T00:19:22.116Z,5.90
2018-08-24T00:20:22.124Z,6.20
2018-08-24T00:21:22.126Z,6.50
2018-08-24T00:22:22.124Z,5.90
2018-08-24T00:23:22.131Z,6.00
2018-08-24T00:24:22.146Z,5.50
2018-08-24T00:25:22.136Z,5.90
2018-08-24T00:26:22.139Z,5.80
2018-08-24T00:27:22.143Z,5.90
2018-08-24T00:28:22.146Z,6.00
2018-08-24T00:29:22.149Z,6.20
2018-08-24T00:30:22.149Z,6.20
2018-08-24T00:31:22.156Z,6.10
2018-08-24T00:32:22.176Z,6.20
2018-08-24T00:33:22.158Z,6.40
2018-08-24T00:34:22.161Z,6.20
2018-08-24T00:35:22.160Z,6.00
2018-08-24T00:36:22.166Z,5.80
2018-08-24T00:37:22.176Z,6.30
2018-08-24T00:38:22.173Z,7.00
2018-08-24T00:39:22.178Z,6.30
2018-08-24T00:40:22.180Z,6.10
2018-08-24T00:41:22.187Z,6.40
2018-08-24T00:42:22.187Z,5.90
2018-08-24T00:43:22.185Z,6.00
2018-08-24T00:44:22.186Z,6.30
2018-08-24T00:45:22.191Z,6.10
2018-08-24T00:46:22.195Z,6.20
2018-08-24T00:47:22.199Z,5.90
2018-08-24T00:48:22.203Z,6.00
2018-08-24T00:49:22.203Z,6.20
2018-08-24T00:50:22.213Z,6.10
2018-08-24T00:51:22.210Z,6.60
2018-08-24T00:52:22.210Z,6.90
2018-08-24T00:53:22.209Z,6.50
2018-08-24T00:54:22.215Z,6.20
2018-08-24T00:55:22.218Z,6.40
2018-08-24T00:56:22.222Z,6.70
2018-08-24T00:57:22.226Z,7.70
2018-08-24T00:58:22.227Z,6.40
2018-08-24T00:59:22.229Z,6.10
2018-08-24T01:00:22.255Z,6.50
2018-08-24T01:01:22.239Z,6.90
2018-08-24T01:02:22.244Z,6.50
2018-08-24T01:03:22.238Z,6.70
2018-08-24T01:04:22.242Z,6.60
2018-08-24T01:05:22.246Z,8.00
2018-08-24T01:06:22.245Z,6.70
2018-08-24T01:07:22.275Z,6.60
2018-08-24T01:08:22.258Z,6.60
2018-08-24T01:09:22.257Z,7.10
2018-08-24T01:10:22.259Z,7.00
2018-08-24T01:11:22.260Z,6.60
2018-08-24T01:12:22.266Z,6.80
2018-08-24T01:13:22.262Z,6.80
2018-08-24T01:14:22.270Z,7.30
2018-08-24T01:15:22.269Z,6.70
2018-08-24T01:16:22.273Z,7.10
2018-08-24T01:17:22.277Z,6.70
2018-08-24T01:18:22.282Z,6.50
2018-08-24T01:19:22.277Z,6.50
2018-08-24T01:20:22.283Z,7.00
2018-08-24T01:21:22.285Z,7.00
2018-08-24T01:22:22.287Z,6.50
2018-08-24T01:23:22.290Z,6.50
2018-08-24T01:24:22.289Z,7.00
2018-08-24T01:25:22.292Z,7.10
2018-08-24T01:26:22.298Z,7.00
2018-08-24T01:27:22.301Z,7.50
2018-08-24T01:28:22.303Z,7.30
2018-08-24T01:29:22.310Z,7.30
2018-08-24T01:30:22.302Z,7.10
2018-08-24T01:31:22.318Z,7.60
2018-08-24T01:32:22.312Z,7.60
2018-08-24T01:33:22.316Z,7.30
2018-08-24T01:34:22.316Z,7.20
2018-08-24T01:35:22.318Z,7.00
2018-08-24T01:36:22.322Z,7.00
2018-08-24T01:37:22.322Z,7.20
2018-08-24T01:38:22.319Z,7.60
2018-08-24T01:39:22.330Z,7.20
2018-08-24T01:40:22.328Z,8.40
2018-08-24T01:41:22.337Z,7.60
2018-08-24T01:42:22.334Z,7.30
2018-08-24T01:43:22.337Z,7.60
2018-08-24T01:44:22.339Z,7.70
2018-08-24T01:45:22.345Z,7.80
2018-08-24T01:46:22.340Z,7.20
2018-08-24T01:47:22.346Z,7.40
2018-08-24T01:48:22.350Z,8.30
2018-08-24T01:49:22.348Z,7.10
2018-08-24T01:50:22.349Z,7.40
2018-08-24T01:51:22.348Z,7.90
2018-08-24T01:52:22.353Z,7.80
2018-08-24T01:53:22.357Z,7.50
2018-08-24T01:54:22.362Z,7.60
2018-08-24T01:55:22.358Z,7.40
2018-08-24T01:56:22.358Z,7.00
2018-08-24T01:57:22.359Z,7.00
2018-08-24T01:58:22.364Z,7.50
2018-08-24T01:59:22.368Z,7.20
2018-08-24T02:00:22.368Z,7.40
2018-08-24T02:01:22.374Z,7.50
2018-08-24T02:02:22.371Z,7.00
2018-08-24T02:03:22.375Z,7.60
2018-08-24T02:04:22.374Z,7.30
2018-08-24T02:05:22.380Z,7.50
2018-08-24T02:06:22.386Z,7.20
2018-08-24T02:07:22.381Z,7.80
2018-08-24T02:08:22.392Z,7.50
2018-08-24T02:09:22.391Z,8.10
2018-08-24T02:10:22.392Z,7.80
2018-08-24T02:11:22.393Z,7.40
2018-08-24T02:12:22.433Z,7.40
2018-08-24T02:13:22.394Z,8.00
2018-08-24T02:14:22.404Z,7.30
2018-08-24T02:15:22.403Z,7.30
2018-08-24T02:16:22.412Z,8.20
2018-08-24T02:17:22.407Z,7.80
2018-08-24T02:18:22.403Z,7.10
2018-08-24T02:19:22.408Z,7.60
2018-08-24T02:20:22.412Z,7.20
2018-08-24T02:21:22.410Z,7.80
2018-08-24T02:22:22.408Z,7.60
2018-08-24T02:23:22.412Z,7.20
2018-08-24T02:24:22.416Z,7.50
2018-08-24T02:25:22.418Z,7.80
2018-08-24T02:26:22.425Z,7.20
2018-08-24T02:27:22.423Z,7.40
2018-08-24T02:28:22.424Z,7.20
2018-08-24T02:29:22.420Z,7.40
2018-08-24T02:30:22.433Z,7.70
2018-08-24T02:31:22.530Z,7.60
2018-08-24T02:32:22.429Z,7.50
2018-08-24T02:33:22.435Z,8.00
2018-08-24T02:34:22.432Z,8.00
2018-08-24T02:35:22.433Z,7.70
2018-08-24T02:36:22.443Z,8.00
2018-08-24T02:37:22.452Z,7.70
2018-08-24T02:38:22.442Z,7.90
2018-08-24T02:39:22.443Z,7.60
2018-08-24T02:40:22.449Z,7.90
2018-08-24T02:41:22.450Z,7.60
2018-08-24T02:42:22.451Z,7.80
2018-08-24T02:43:22.454Z,7.80
2018-08-24T02:44:22.460Z,8.40
2018-08-24T02:45:22.452Z,8.30
2018-08-24T02:46:22.455Z,8.10
2018-08-24T02:47:22.465Z,8.00
2018-08-24T02:48:22.459Z,8.40
2018-08-24T02:49:22.459Z,9.40
2018-08-24T02:50:22.458Z,9.50
2018-08-24T02:51:22.464Z,10.80
2018-08-24T02:52:22.467Z,9.90
2018-08-24T02:53:22.472Z,10.10
2018-08-24T02:54:22.465Z,10.90
2018-08-24T02:55:22.468Z,14.30
2018-08-24T02:56:22.481Z,11.80
2018-08-24T02:57:22.481Z,12.80
2018-08-24T02:58:22.474Z,13.70
2018-08-24T02:59:22.478Z,14.10
2018-08-24T03:00:22.478Z,11.70
2018-08-24T03:01:22.474Z,13.00
2018-08-24T03:02:22.483Z,15.20
2018-08-24T03:03:22.487Z,12.90
2018-08-24T03:04:22.488Z,13.20
2018-08-24T03:05:22.660Z,11.70
2018-08-24T03:06:22.489Z,14.70
2018-08-24T03:07:22.492Z,27.30
2018-08-24T03:08:22.532Z,17.60
2018-08-24T03:09:22.492Z,24.60
2018-08-24T03:10:22.498Z,24.90
2018-08-24T03:11:22.497Z,25.50
2018-08-24T03:12:22.494Z,26.80
2018-08-24T03:13:22.497Z,32.80
2018-08-24T03:14:22.501Z,31.40
2018-08-24T03:15:22.509Z,28.30
2018-08-24T03:16:22.514Z,31.30
2018-08-24T03:17:22.510Z,38.00
2018-08-24T03:18:22.524Z,35.80
2018-08-24T03:19:22.509Z,32.80
2018-08-24T03:20:22.512Z,41.40
2018-08-24T03:21:22.533Z,42.70
2018-08-24T03:22:22.516Z,42.70
2018-08-24T03:23:22.521Z,43.00
2018-08-24T03:24:22.514Z,49.10
2018-08-24T03:25:22.518Z,48.00
2018-08-24T03:26:22.529Z,48.40
2018-08-24T03:27:22.525Z,49.20
2018-08-24T03:28:22.535Z,48.70
2018-08-24T03:29:22.528Z,52.00
2018-08-24T03:30:22.528Z,48.70
2018-08-24T03:31:22.530Z,52.80
2018-08-24T03:32:22.541Z,56.00
2018-08-24T03:33:22.534Z,54.30
2018-08-24T03:34:22.540Z,53.40
2018-08-24T03:35:22.539Z,53.10
2018-08-24T03:36:22.535Z,53.20
2018-08-24T03:37:22.568Z,52.30
2018-08-24T03:38:22.543Z,56.30
2018-08-24T03:39:22.543Z,57.00
2018-08-24T03:40:22.549Z,56.40
2018-08-24T03:41:22.550Z,52.90
2018-08-24T03:42:22.559Z,53.10
2018-08-24T03:43:22.555Z,53.90
2018-08-24T03:44:22.556Z,50.80
2018-08-24T03:45:22.556Z,50.80
2018-08-24T03:46:22.556Z,53.20
2018-08-24T03:47:22.565Z,52.60
2018-08-24T03:48:22.565Z,48.20
2018-08-24T03:49:22.564Z,47.50
2018-08-24T03:50:22.571Z,50.80
2018-08-24T03:51:22.565Z,52.00
2018-08-24T03:52:22.565Z,49.10
2018-08-24T03:53:22.663Z,48.80
2018-08-24T03:54:22.574Z,50.00
2018-08-24T03:55:22.574Z,49.30
2018-08-24T03:56:22.577Z,49.70
2018-08-24T03:57:22.576Z,50.40
2018-08-24T03:58:22.585Z,46.80
2018-08-24T03:59:22.583Z,50.40
2018-08-24T04:00:22.583Z,47.40
2018-08-24T04:01:22.588Z,45.80
2018-08-24T04:02:22.593Z,45.30
2018-08-24T04:03:22.589Z,48.90
2018-08-24T04:04:22.589Z,46.60
2018-08-24T04:05:22.590Z,47.10
2018-08-24T04:06:22.597Z,45.80
2018-08-24T04:07:22.598Z,43.80
2018-08-24T04:08:22.598Z,44.70
2018-08-24T04:09:22.602Z,47.20
2018-08-24T04:10:22.599Z,45.00
2018-08-24T04:11:22.599Z,43.00
2018-08-24T04:12:22.604Z,40.80
2018-08-24T04:13:22.606Z,40.40
2018-08-24T04:14:22.608Z,38.10
2018-08-24T04:15:22.611Z,34.40
2018-08-24T04:16:22.613Z,31.30
2018-08-24T04:17:22.615Z,30.30
2018-08-24T04:18:22.615Z,28.80
2018-08-24T04:19:22.654Z,25.00
2018-08-24T04:20:22.634Z,24.40
2018-08-24T04:21:22.621Z,22.30
2018-08-24T04:22:22.621Z,22.50
2018-08-24T04:23:22.622Z,22.60
2018-08-24T04:24:22.630Z,21.30
2018-08-24T04:25:22.633Z,21.20
2018-08-24T04:26:22.630Z,20.40
2018-08-24T04:27:22.640Z,19.90
2018-08-24T04:28:22.630Z,18.50
2018-08-24T04:29:22.641Z,19.40
2018-08-24T04:30:22.640Z,19.00
2018-08-24T04:31:22.650Z,19.10
2018-08-24T04:32:22.643Z,18.20
2018-08-24T04:33:22.640Z,18.00
2018-08-24T04:34:22.638Z,17.50
2018-08-24T04:35:22.647Z,17.20
2018-08-24T04:36:22.650Z,17.20
2018-08-24T04:37:22.650Z,17.60
2018-08-24T04:38:22.647Z,17.50
2018-08-24T04:39:22.651Z,17.10
2018-08-24T04:40:22.791Z,17.20
2018-08-24T04:41:22.659Z,17.20
2018-08-24T04:42:22.667Z,17.40
2018-08-24T04:43:22.661Z,17.30
2018-08-24T04:44:22.664Z,16.80
2018-08-24T04:45:22.665Z,17.10
2018-08-24T04:46:22.666Z,17.50
2018-08-24T04:47:22.668Z,18.10
2018-08-24T04:48:22.677Z,17.50
2018-08-24T04:49:22.679Z,17.30
2018-08-24T04:50:22.673Z,18.00
2018-08-24T04:51:22.684Z,17.40
2018-08-24T04:52:22.688Z,18.50
2018-08-24T04:53:22.681Z,19.00
2018-08-24T04:54:22.683Z,18.40
2018-08-24T04:55:22.678Z,18.50
2018-08-24T04:56:22.682Z,18.00
2018-08-24T04:57:22.686Z,17.90
2018-08-24T04:58:22.713Z,18.70
2018-08-24T04:59:22.691Z,19.30
2018-08-24T05:00:22.688Z,18.80
2018-08-24T05:01:22.716Z,18.70
2018-08-24T05:02:22.697Z,19.20
2018-08-24T05:03:22.696Z,18.80
2018-08-24T05:04:22.696Z,19.60
2018-08-24T05:05:22.698Z,19.10
2018-08-24T05:06:22.697Z,19.70
2018-08-24T05:07:22.698Z,18.90
2018-08-24T05:08:22.702Z,19.20
2018-08-24T05:09:22.701Z,18.50
2018-08-24T05:10:22.709Z,18.10
2018-08-24T05:11:22.712Z,19.40
2018-08-24T05:12:22.712Z,19.00
2018-08-24T05:13:22.708Z,19.60
2018-08-24T05:14:22.709Z,19.70
2018-08-24T05:15:22.714Z,19.70
2018-08-24T05:16:22.715Z,20.30
2018-08-24T05:17:22.719Z,19.60
2018-08-24T05:18:22.719Z,20.00
2018-08-24T05:19:22.721Z,19.90
2018-08-24T05:20:22.722Z,19.90
2018-08-24T05:21:22.781Z,19.90
2018-08-24T05:22:22.726Z,20.30
2018-08-24T05:23:22.760Z,20.20
2018-08-24T05:24:22.726Z,19.50
2018-08-24T05:25:22.730Z,19.60
2018-08-24T05:26:22.734Z,19.40
2018-08-24T05:27:22.737Z,20.00
2018-08-24T05:28:22.732Z,19.90
2018-08-24T05:29:22.733Z,20.30
2018-08-24T05:30:22.741Z,19.40
2018-08-24T05:31:22.751Z,20.50
2018-08-24T05:32:22.743Z,21.90
2018-08-24T05:33:22.748Z,19.70
2018-08-24T05:34:22.747Z,20.30
2018-08-24T05:35:22.752Z,20.80
2018-08-24T05:36:22.749Z,20.90
2018-08-24T05:37:22.748Z,20.70
2018-08-24T05:38:22.752Z,21.10
2018-08-24T05:39:22.755Z,21.30
2018-08-24T05:40:22.757Z,21.50
2018-08-24T05:41:22.787Z,21.10
2018-08-24T05:42:22.768Z,21.30
2018-08-24T05:43:22.762Z,22.90
2018-08-24T05:44:22.815Z,22.30
2018-08-24T05:45:22.767Z,23.50
2018-08-24T05:46:22.764Z,23.00
2018-08-24T05:47:22.769Z,23.10
2018-08-24T05:48:22.777Z,23.10
2018-08-24T05:49:22.779Z,23.00
2018-08-24T05:50:22.776Z,22.30
2018-08-24T05:51:22.779Z,25.10
2018-08-24T05:52:22.791Z,24.90
2018-08-24T05:53:22.784Z,22.30
2018-08-24T05:54:22.785Z,21.90
2018-08-24T05:55:22.798Z,23.90
2018-08-24T05:56:22.827Z,23.50
2018-08-24T05:57:22.829Z,22.00
2018-08-24T05:58:22.792Z,21.50
2018-08-24T05:59:22.797Z,23.00
2018-08-24T06:00:22.790Z,20.60
2018-08-24T06:01:22.807Z,23.80
2018-08-24T06:02:22.798Z,24.30
2018-08-24T06:03:22.798Z,22.90
2018-08-24T06:04:22.800Z,22.00
2018-08-24T06:05:22.810Z,23.20
2018-08-24T06:06:22.805Z,22.50
2018-08-24T06:07:22.810Z,22.90
2018-08-24T06:08:22.812Z,22.70
2018-08-24T06:09:22.818Z,22.50
2018-08-24T06:10:22.817Z,21.70
2018-08-24T06:11:22.821Z,21.50
2018-08-24T06:12:22.822Z,22.00
2018-08-24T06:13:22.830Z,21.00
2018-08-24T06:14:22.830Z,21.90
2018-08-24T06:15:22.828Z,21.80
2018-08-24T06:16:22.833Z,22.10
2018-08-24T06:17:22.835Z,20.70
2018-08-24T06:18:22.844Z,20.90
2018-08-24T06:19:22.838Z,20.50
2018-08-24T06:20:22.844Z,20.50
2018-08-24T06:21:22.844Z,20.00
2018-08-24T06:22:22.875Z,19.70
2018-08-24T06:23:22.853Z,20.40
2018-08-24T06:24:22.907Z,20.40
2018-08-24T06:25:22.856Z,19.80
2018-08-24T06:26:22.859Z,19.90
2018-08-24T06:27:22.874Z,19.80
2018-08-24T06:28:22.865Z,20.30
2018-08-24T06:29:22.867Z,20.60
2018-08-24T06:30:22.873Z,20.40
2018-08-24T06:31:22.878Z,19.20
2018-08-24T06:32:22.884Z,21.10
2018-08-24T06:33:22.884Z,20.60
2018-08-24T06:34:22.887Z,20.00
2018-08-24T06:35:22.893Z,21.70
2018-08-24T06:36:22.901Z,20.70
2018-08-24T06:37:22.898Z,19.50
2018-08-24T06:38:22.918Z,19.60
2018-08-24T06:39:22.904Z,19.50
2018-08-24T06:40:22.909Z,19.40
2018-08-24T06:41:22.915Z,20.40
2018-08-24T06:42:22.914Z,19.10
2018-08-24T06:43:22.923Z,18.90
2018-08-24T06:44:22.925Z,19.40
2018-08-24T06:45:22.928Z,17.80
2018-08-24T06:46:22.932Z,18.00
2018-08-24T06:47:23.109Z,17.30
2018-08-24T06:48:22.940Z,18.90
2018-08-24T06:49:22.945Z,17.70
2018-08-24T06:50:22.949Z,18.50
2018-08-24T06:51:22.951Z,18.10
2018-08-24T06:52:22.958Z,19.10
2018-08-24T06:53:23.130Z,17.80
2018-08-24T06:54:22.968Z,18.40
2018-08-24T06:55:22.968Z,19.50
2018-08-24T06:56:22.972Z,18.90
2018-08-24T06:57:22.980Z,19.40
2018-08-24T06:58:22.995Z,17.90
2018-08-24T06:59:22.984Z,18.00
2018-08-24T07:00:22.987Z,18.80
2018-08-24T07:01:22.991Z,18.60
2018-08-24T07:02:22.996Z,18.70
2018-08-24T07:03:23.000Z,18.70
2018-08-24T07:04:23.005Z,16.80
2018-08-24T07:05:23.008Z,16.70
2018-08-24T07:06:23.013Z,15.70
2018-08-24T07:07:23.015Z,15.80
2018-08-24T07:08:23.021Z,15.50
2018-08-24T07:09:23.024Z,15.20
2018-08-24T07:10:23.029Z,14.80
2018-08-24T07:11:23.032Z,15.10
2018-08-24T07:12:23.042Z,14.80
2018-08-24T07:13:23.042Z,14.80
2018-08-24T07:14:23.050Z,15.30
2018-08-24T07:15:23.055Z,14.60
2018-08-24T07:16:23.055Z,14.30
2018-08-24T07:17:23.055Z,13.70
2018-08-24T07:18:23.060Z,13.00
2018-08-24T07:19:23.063Z,13.00
2018-08-24T07:20:23.069Z,12.50
2018-08-24T07:21:23.072Z,12.90
2018-08-24T07:22:23.076Z,13.40
2018-08-24T07:23:23.079Z,13.20
2018-08-24T07:24:23.085Z,13.80
2018-08-24T07:25:23.086Z,13.50
2018-08-24T07:26:23.091Z,14.10
2018-08-24T07:27:23.097Z,14.90
2018-08-24T07:28:23.100Z,14.30
2018-08-24T07:29:23.099Z,14.20
2018-08-24T07:30:23.110Z,13.50
2018-08-24T07:31:23.118Z,13.90
2018-08-24T07:32:23.118Z,13.00
2018-08-24T07:33:23.121Z,13.00
2018-08-24T07:34:23.131Z,12.80
2018-08-24T07:35:23.131Z,12.50
2018-08-24T07:36:23.134Z,12.10
2018-08-24T07:37:23.139Z,13.30
2018-08-24T07:38:23.142Z,13.10
2018-08-24T07:39:23.148Z,12.60
2018-08-24T07:40:23.154Z,14.00
2018-08-24T07:41:23.175Z,13.60
2018-08-24T07:42:23.160Z,13.80
2018-08-24T07:43:23.165Z,14.00
2018-08-24T07:44:23.171Z,13.30
2018-08-24T07:45:23.176Z,13.40
2018-08-24T07:46:23.178Z,13.70
2018-08-24T07:47:23.184Z,12.80
2018-08-24T07:48:23.188Z,12.70
2018-08-24T07:49:23.189Z,12.20
2018-08-24T07:50:23.191Z,12.60
2018-08-24T07:51:23.198Z,12.60
2018-08-24T07:52:23.203Z,12.10
2018-08-24T07:53:23.208Z,13.30
2018-08-24T07:54:23.265Z,12.20
2018-08-24T07:55:23.218Z,11.60
2018-08-24T07:56:23.221Z,12.00
2018-08-24T07:57:23.227Z,11.80
2018-08-24T07:58:23.231Z,10.60
2018-08-24T07:59:23.236Z,11.50
2018-08-24T08:00:23.241Z,11.30
2018-08-24T08:01:23.287Z,11.80
2018-08-24T08:02:23.247Z,11.10
2018-08-24T08:03:23.255Z,11.80
2018-08-24T08:04:23.259Z,11.50
2018-08-24T08:05:23.304Z,11.40
2018-08-24T08:06:23.268Z,12.30
2018-08-24T08:07:23.271Z,11.80
2018-08-24T08:08:23.275Z,11.40
2018-08-24T08:09:23.282Z,12.60
2018-08-24T08:10:23.286Z,12.70
2018-08-24T08:11:23.291Z,12.50
2018-08-24T08:12:23.303Z,13.40
2018-08-24T08:13:23.299Z,13.50
2018-08-24T08:14:23.368Z,13.00
2018-08-24T08:15:23.322Z,14.00
2018-08-24T08:16:23.310Z,14.20
2018-08-24T08:17:23.316Z,13.50
2018-08-24T08:18:23.392Z,13.70
2018-08-24T08:19:23.319Z,13.50
2018-08-24T08:20:23.330Z,13.90
2018-08-24T08:21:23.330Z,13.90
2018-08-24T08:22:23.343Z,13.70
2018-08-24T08:23:23.346Z,13.90
2018-08-24T08:24:23.343Z,13.30
2018-08-24T08:25:23.348Z,14.00
2018-08-24T08:26:23.349Z,12.40
2018-08-24T08:27:23.354Z,11.90
2018-08-24T08:28:23.354Z,12.60
2018-08-24T08:29:23.359Z,11.50
2018-08-24T08:30:23.361Z,11.30
2018-08-24T08:31:23.368Z,10.90
2018-08-24T08:32:23.650Z,10.50
2018-08-24T08:33:23.375Z,10.20
2018-08-24T08:34:23.375Z,9.70
2018-08-24T08:35:23.483Z,9.10
2018-08-24T08:36:23.385Z,9.40
2018-08-24T08:37:23.523Z,8.80
2018-08-24T08:38:23.391Z,8.40
2018-08-24T08:39:23.393Z,8.30
2018-08-24T08:40:23.397Z,8.20
2018-08-24T08:41:23.403Z,7.70
2018-08-24T08:42:23.405Z,7.60
2018-08-24T08:43:23.407Z,6.80
2018-08-24T08:44:23.412Z,5.90
2018-08-24T08:45:23.430Z,5.80
2018-08-24T08:46:23.447Z,5.20
2018-08-24T08:47:23.419Z,5.60
2018-08-24T08:48:23.427Z,4.40
2018-08-24T08:49:23.428Z,7.00
2018-08-24T08:50:23.487Z,4.70
2018-08-24T08:51:23.439Z,5.70
2018-08-24T08:52:23.443Z,4.90
2018-08-24T08:53:23.464Z,4.80
2018-08-24T08:54:23.554Z,3.80
2018-08-24T08:55:23.453Z,3.70
2018-08-24T08:56:23.456Z,3.50
2018-08-24T08:57:23.459Z,3.20
2018-08-24T08:58:23.469Z,2.90
2018-08-24T08:59:23.467Z,2.90
2018-08-24T09:00:23.470Z,2.90
2018-08-24T09:01:23.475Z,3.00
2018-08-24T09:02:23.481Z,2.70
2018-08-24T09:03:23.482Z,2.80
2018-08-24T09:04:23.485Z,4.00
2018-08-24T09:05:23.491Z,3.80
2018-08-24T09:06:23.536Z,2.50
2018-08-24T09:07:23.496Z,2.50
2018-08-24T09:08:23.502Z,4.00
2018-08-24T09:09:23.501Z,2.70
2018-08-24T09:10:23.507Z,3.00
2018-08-24T09:11:23.512Z,3.30
2018-08-24T09:12:23.518Z,4.30
2018-08-24T09:13:23.519Z,3.50
2018-08-24T09:14:23.557Z,3.50
2018-08-24T09:15:23.526Z,3.30
2018-08-24T09:16:23.532Z,2.90
2018-08-24T09:17:23.537Z,2.90
2018-08-24T09:18:23.579Z,3.00
2018-08-24T09:19:23.542Z,3.60
2018-08-24T09:20:23.547Z,2.60
2018-08-24T09:21:23.548Z,2.90
2018-08-24T09:22:23.553Z,2.60
2018-08-24T09:23:23.559Z,2.80
2018-08-24T09:24:23.566Z,2.80
2018-08-24T09:25:23.704Z,4.10
2018-08-24T09:26:23.569Z,4.10
2018-08-24T09:27:23.618Z,2.90
2018-08-24T09:28:23.577Z,2.70
2018-08-24T09:29:23.582Z,2.50
2018-08-24T09:30:23.588Z,3.60
2018-08-24T09:31:23.592Z,2.50
2018-08-24T09:32:23.756Z,2.60
2018-08-24T09:33:23.597Z,3.30
2018-08-24T09:34:23.601Z,2.70
2018-08-24T09:35:23.622Z,3.30
2018-08-24T09:36:23.708Z,3.40
2018-08-24T09:37:23.618Z,2.80
2018-08-24T09:38:23.618Z,2.70
2018-08-24T09:39:23.621Z,3.20
2018-08-24T09:40:23.624Z,3.30
2018-08-24T09:41:23.632Z,3.20
2018-08-24T09:42:23.633Z,3.20
2018-08-24T09:43:23.645Z,4.50
2018-08-24T09:44:23.642Z,3.70
2018-08-24T09:45:23.645Z,3.00
2018-08-24T09:46:23.651Z,2.90
2018-08-24T09:47:23.656Z,2.60
2018-08-24T09:48:23.669Z,2.90
2018-08-24T09:49:23.716Z,3.20
2018-08-24T09:50:23.668Z,3.70
2018-08-24T09:51:23.676Z,2.80
2018-08-24T09:52:23.675Z,3.10
2018-08-24T09:53:23.679Z,2.80
2018-08-24T09:54:23.684Z,3.20
2018-08-24T09:55:23.691Z,3.50
2018-08-24T09:56:23.695Z,3.40
2018-08-24T09:57:23.695Z,2.90
2018-08-24T09:58:23.699Z,3.00
2018-08-24T09:59:23.708Z,2.70
2018-08-24T10:00:23.708Z,3.00
2018-08-24T10:01:23.710Z,3.10
2018-08-24T10:02:23.716Z,3.00
2018-08-24T10:03:23.720Z,2.60
2018-08-24T10:04:23.724Z,2.60
2018-08-24T10:05:23.727Z,2.80
2018-08-24T10:06:23.828Z,2.50
2018-08-24T10:07:23.735Z,3.00
2018-08-24T10:08:23.737Z,2.80
2018-08-24T10:09:23.744Z,2.60
2018-08-24T10:10:23.747Z,2.80
2018-08-24T10:11:23.753Z,2.90
2018-08-24T10:12:23.756Z,3.40
2018-08-24T10:13:23.836Z,3.20
2018-08-24T10:14:23.763Z,3.50
2018-08-24T10:15:23.767Z,4.00
2018-08-24T10:16:23.872Z,3.30
2018-08-24T10:17:23.774Z,3.00
2018-08-24T10:18:23.782Z,3.20
2018-08-24T10:19:23.780Z,3.40
2018-08-24T10:20:23.785Z,3.60
2018-08-24T10:21:23.789Z,3.60
2018-08-24T10:22:23.794Z,4.10
2018-08-24T10:23:23.798Z,3.90
2018-08-24T10:24:23.804Z,3.50
2018-08-24T10:25:23.805Z,3.30
2018-08-24T10:26:23.811Z,3.30
2018-08-24T10:27:23.816Z,3.40
2018-08-24T10:28:23.817Z,4.30
2018-08-24T10:29:23.968Z,3.10
2018-08-24T10:30:23.828Z,3.30
2018-08-24T10:31:23.828Z,3.20
2018-08-24T10:32:23.826Z,3.70
2018-08-24T10:33:23.838Z,3.40
2018-08-24T10:34:23.852Z,2.90
2018-08-24T10:35:23.844Z,2.90
2018-08-24T10:36:23.981Z,3.70
2018-08-24T10:37:23.851Z,3.50
2018-08-24T10:38:23.856Z,3.50
2018-08-24T10:39:23.881Z,3.90
2018-08-24T10:40:23.863Z,3.90
2018-08-24T10:41:23.912Z,3.80
2018-08-24T10:42:23.873Z,3.90
2018-08-24T10:43:23.869Z,3.60
2018-08-24T10:44:23.881Z,3.80
2018-08-24T10:45:23.879Z,3.20
2018-08-24T10:46:23.885Z,3.70
2018-08-24T10:47:23.895Z,4.00
2018-08-24T10:48:23.894Z,4.00
2018-08-24T10:49:23.956Z,3.70
2018-08-24T10:50:23.912Z,3.40
2018-08-24T10:51:23.904Z,3.80
2018-08-24T10:52:23.906Z,3.90
2018-08-24T10:53:23.911Z,4.40
2018-08-24T10:54:23.922Z,3.30
2018-08-24T10:55:23.937Z,4.10
2018-08-24T10:56:23.923Z,3.70
2018-08-24T10:57:23.948Z,4.40
2018-08-24T10:58:23.931Z,4.50
2018-08-24T10:59:23.933Z,3.60
2018-08-24T11:00:23.939Z,4.10
2018-08-24T11:01:23.949Z,4.70
2018-08-24T11:02:23.943Z,3.90
2018-08-24T11:03:23.968Z,3.90
2018-08-24T11:04:23.957Z,6.60
2018-08-24T11:05:24.013Z,3.90
2018-08-24T11:06:23.960Z,7.70
2018-08-24T11:07:24.062Z,3.60
2018-08-24T11:08:23.968Z,3.50
2018-08-24T11:09:23.970Z,4.70
2018-08-24T11:10:23.982Z,3.40
2018-08-24T11:11:23.975Z,4.20
2018-08-24T11:12:23.981Z,3.50
2018-08-24T11:13:23.984Z,4.40
2018-08-24T11:14:23.990Z,3.50
2018-08-24T11:15:24.036Z,3.30
2018-08-24T11:16:38.860Z,3.40
2018-08-24T11:17:24.000Z,3.60
2018-08-24T11:18:24.003Z,3.30
2018-08-24T11:19:24.008Z,4.90
2018-08-24T11:20:24.011Z,3.10
2018-08-24T11:21:24.012Z,3.00
2018-08-24T11:22:24.020Z,4.00
2018-08-24T11:23:24.020Z,3.40
2018-08-24T11:24:24.028Z,3.90
2018-08-24T11:25:24.045Z,3.00
2018-08-24T11:26:24.029Z,3.10
2018-08-24T11:27:24.034Z,4.10
2018-08-24T11:28:24.039Z,2.90
2018-08-24T11:29:24.094Z,4.00
2018-08-24T11:30:24.040Z,4.00
2018-08-24T11:31:24.086Z,3.40
2018-08-24T11:32:24.049Z,3.40
2018-08-24T11:33:24.061Z,3.30
2018-08-24T11:34:24.060Z,6.80
2018-08-24T11:35:24.060Z,3.00
2018-08-24T11:36:24.115Z,3.00
2018-08-24T11:37:24.063Z,3.10
2018-08-24T11:38:24.065Z,3.00
2018-08-24T11:39:24.076Z,3.20
2018-08-24T11:40:24.074Z,3.10
2018-08-24T11:41:24.351Z,5.80
2018-08-24T11:42:24.080Z,3.60
2018-08-24T11:43:24.249Z,3.50
2018-08-24T11:44:24.087Z,3.80
2018-08-24T11:45:24.107Z,3.50
2018-08-24T11:46:24.091Z,4.30
2018-08-24T11:47:24.273Z,3.60
2018-08-24T11:48:24.098Z,4.50
2018-08-24T11:49:24.099Z,4.00
2018-08-24T11:50:24.103Z,4.00
2018-08-24T11:51:24.104Z,4.10
2018-08-24T11:52:24.108Z,3.80
2018-08-24T11:53:24.107Z,3.80
2018-08-24T11:54:24.124Z,3.90
2018-08-24T11:55:24.117Z,4.10
2018-08-24T11:56:24.224Z,4.00
2018-08-24T11:57:24.123Z,3.90
2018-08-24T11:58:24.124Z,3.90
2018-08-24T11:59:24.128Z,4.00
2018-08-24T12:00:24.133Z,3.90
2018-08-24T12:01:24.256Z,4.10
2018-08-24T12:02:24.166Z,3.90
2018-08-24T12:03:24.151Z,4.00
2018-08-24T12:04:24.140Z,3.90
2018-08-24T12:05:24.251Z,4.10
2018-08-24T12:06:24.146Z,4.00
2018-08-24T12:07:24.148Z,3.80
2018-08-24T12:08:24.312Z,4.10
2018-08-24T12:09:24.153Z,3.90
2018-08-24T12:10:24.158Z,4.10
2018-08-24T12:11:24.160Z,4.30
2018-08-24T12:12:24.178Z,4.30
2018-08-24T12:13:24.498Z,4.00
2018-08-24T12:14:24.392Z,4.10
2018-08-24T12:15:24.293Z,4.10
2018-08-24T12:16:24.845Z,4.50
2018-08-24T12:17:24.473Z,4.10
2018-08-24T12:18:24.677Z,4.30
2018-08-24T12:19:24.267Z,4.40
2018-08-24T12:20:24.193Z,4.70
2018-08-24T12:21:24.529Z,4.80
2018-08-24T12:22:24.281Z,4.90
2018-08-24T12:23:25.165Z,5.50
2018-08-24T12:24:24.926Z,5.40
2018-08-24T12:25:24.344Z,5.50
2018-08-24T12:26:24.514Z,5.50
2018-08-24T12:28:24.548Z,6.10
2018-08-24T12:29:24.415Z,5.50
2018-08-24T12:30:25.644Z,5.60
2018-08-24T12:31:26.059Z,5.50
2018-08-24T12:32:24.958Z,5.50
2018-08-24T12:34:24.452Z,5.70
2018-08-24T12:35:24.375Z,6.00
2018-08-24T12:36:24.426Z,5.60
2018-08-24T12:37:24.264Z,5.90
2018-08-24T12:38:24.262Z,5.80
2018-08-24T12:39:24.467Z,5.70
2018-08-24T12:40:24.281Z,5.60
2018-08-24T12:41:24.331Z,5.50
2018-08-24T12:42:24.311Z,5.60
2018-08-24T12:43:24.311Z,5.50
2018-08-24T12:44:24.314Z,5.70
2018-08-24T12:45:24.312Z,5.40
2018-08-24T12:46:24.289Z,5.60
2018-08-24T12:47:24.315Z,5.80
2018-08-24T12:48:24.324Z,5.50
2018-08-24T12:49:24.435Z,5.70
2018-08-24T12:50:24.361Z,5.90
2018-08-24T12:51:24.744Z,5.80
2018-08-24T12:52:24.343Z,5.50
2018-08-24T12:53:24.511Z,5.80
2018-08-24T12:54:24.321Z,6.00
2018-08-24T12:55:24.354Z,5.40
2018-08-24T12:56:24.330Z,5.70
2018-08-24T12:57:24.411Z,5.90
2018-08-24T12:58:24.348Z,5.40
2018-08-24T12:59:24.370Z,6.10
2018-08-24T13:00:24.361Z,6.00
2018-08-24T13:01:24.331Z,5.70
2018-08-24T13:02:24.319Z,5.70
2018-08-24T13:03:24.319Z,5.60
2018-08-24T13:04:24.325Z,5.50
2018-08-24T13:05:24.353Z,5.90
2018-08-24T13:06:24.385Z,5.50
2018-08-24T13:07:24.356Z,5.70
2018-08-24T13:08:24.342Z,6.10
2018-08-24T13:09:24.477Z,5.90